메인 페이지
METAR-TAF:

METAR-TAF

공항 :

카디프, 웨일스

위도: 51-24N, 경도: 003-21W, 고도: 67m

현재 날씨관측

예보는 31분 전, 12:50시(UTC)에 발표되었습니다.
6kt남서풍과 서북서풍을 오가는
온도 17°C
습도 82%
기압 1020 hPa
시정 10km 이상
고도 2100ft 상공 구름 많음
고도 2800ft 상공 흐림

METAR: EGFF 241250Z AUTO 26006KT 230V300 9999 BKN021 OVC028 17/14 Q1020

시각: 14:21 (13:21 UTC)

예보

예보는 2 시간 19분 전, 11:02시(UTC)에 발표되었습니다.
예보 대상 시간: 24일 12시부터 25일 12시까지 (UTC)
7kt
시정 10km 이상
고도 4500ft 상공 구름 보통
확률 30% :
일시적
24일 12시부터 24일 15시까지 (UTC)
고도 1400ft 상공 구름 많음
일시적
24일 15시부터 24일 19시까지 (UTC)
시정: 6000m
고도 900ft 상공 구름 많음
전환 중
24일 19시부터 24일 22시까지 (UTC)
고도 500ft 상공 구름 많음
일시적
24일 19시부터 25일 09시까지 (UTC)
시정: 6000m
고도 400ft 상공 구름 많음
약한비, 이슬비
확률 40% :
일시적
25일 01시부터 25일 07시까지 (UTC)
시정: 1200m
고도 100ft 상공 흐림
이슬비, 박무
전환 중
25일 09시부터 25일 12시까지 (UTC)
고도 2500ft 상공 구름 보통

TAF: EGFF 241102Z 2412/2512 26007KT 9999 SCT045 PROB30 TEMPO 2412/2415 BKN014 TEMPO 2415/2419 6000 RA BKN009 BECMG 2419/2422 BKN005 TEMPO 2419/2509 6000 -RADZ BKN004 PROB40 TEMPO 2501/2507 1200 DZ BR OVC001 BECMG 2509/2512 SCT025

4,000개 이상의 공항 관측 자료 및 예보 (METAR 및 TAF 보고).

지도상에서 검색 가능한 기상관측소가 노란 점과 빨간 점으로 표시되어 있습니다.

기상관측소 명을 보려면 표시 위로 마우스를 이동하세요.

날씨 관측과 예보를 보려면 클릭하세요.

지도 변경 : 확대하려면 엑스 표시가 있는 녹색 버튼, 축소하려면 빼기 표시가 있는 녹색 버튼, 다음 페이지의 지도를 보려면 녹색 화살표를 클릭하세요.


METAR-TAF: